首页
METAR-TAF:

METAR-TAF

机场 :

Pangnirtung, 努那武特, 加拿大

纬度: 66-09N, 经度: 065-43W, 海拔: 23米

当前天气观测

该预报发布于2小时和22分钟前的22:00 UTC
风速13节,风向西,有时为18节阵风
温度 -28°C
湿度 62%
气压 1003 hPa
能見度: 24.1公里
少量云层高于2000英尺
散云层高于25000英尺
冰针, 低吹雪

METAR: CYXP 182200Z 26013G18KT 15SM IC DRSN FEW020 SCT250 M28/M33 A2962 RMK IC1SC1CI1 VIS NE LWR S00 AFT 11UTC TR/LAST STFD OBS/NEXT 191100Z SLP035

时间: 20:22 (00:22 UTC)

预报

该预报发布于5小时和43分钟前的18:39 UTC
预报有效从18日的 19点(UTC)到 18日的 22点(UTC)
风速5节,风向西转西南
能見度: 10公里
少量云层高于2500英尺
散云层高于4000英尺
冰针

TAF: CYXP 181839Z 1819/1822 24005KT P6SM IC FEW025 SCT040 RMK NXT FCST WILL BE ISSUED AT 191245Z

超过4000个机场的气象观测和天气预报(METAR&TAF报告)。

可查询的气象台以黄色和红色小点在地图上表示。

将鼠标移到小点上方,可查看气象台名称。

然后点击查看天气观测和预报。

如需切换地图:点击带黑十字的绿色按钮放大地图;点击带横线的绿色按钮缩小地图;或者点击绿色箭头查看邻近地区的地图。


METAR-TAF: